sensor_id;sensor_type;location;lat;lon;timestamp;pressure;altitude;pressure_sealevel;temperature;humidity
4392;BME280;2210;51.938;8.488;2023-05-12T00:04:07;100481.19;;;13.19;100.00
4392;BME280;2210;51.938;8.488;2023-05-12T00:08:07;100479.69;;;13.11;100.00
4392;BME280;2210;51.938;8.488;2023-05-12T00:12:08;100504.28;;;13.07;100.00
4392;BME280;2210;51.938;8.488;2023-05-12T00:16:08;100507.91;;;13.08;100.00
4392;BME280;2210;51.938;8.488;2023-05-12T00:20:12;100515.94;;;13.09;100.00
4392;BME280;2210;51.938;8.488;2023-05-12T00:24:13;100519.16;;;13.01;100.00
4392;BME280;2210;51.938;8.488;2023-05-12T00:28:13;100518.38;;;13.06;100.00
4392;BME280;2210;51.938;8.488;2023-05-12T00:32:16;100514.09;;;12.98;100.00
4392;BME280;2210;51.938;8.488;2023-05-12T00:36:17;100516.13;;;13.03;100.00
4392;BME280;2210;51.938;8.488;2023-05-12T00:40:39;100503.72;;;13.05;100.00
4392;BME280;2210;51.938;8.488;2023-05-12T00:44:49;100511.28;;;12.93;100.00
4392;BME280;2210;51.938;8.488;2023-05-12T00:49:01;100500.97;;;12.88;100.00
4392;BME280;2210;51.938;8.488;2023-05-12T00:53:11;100505.06;;;12.86;100.00
4392;BME280;2210;51.938;8.488;2023-05-12T00:57:15;100501.47;;;12.85;100.00
4392;BME280;2210;51.938;8.488;2023-05-12T01:01:24;100502.25;;;12.80;100.00
4392;BME280;2210;51.938;8.488;2023-05-12T01:05:29;100494.13;;;12.74;100.00
4392;BME280;2210;51.938;8.488;2023-05-12T01:09:29;100498.28;;;12.76;100.00
4392;BME280;2210;51.938;8.488;2023-05-12T01:13:33;100498.88;;;12.78;100.00
4392;BME280;2210;51.938;8.488;2023-05-12T01:17:55;100495.84;;;12.80;100.00
4392;BME280;2210;51.938;8.488;2023-05-12T01:22:12;100497.72;;;12.74;100.00
4392;BME280;2210;51.938;8.488;2023-05-12T01:26:12;100502.41;;;12.74;100.00
4392;BME280;2210;51.938;8.488;2023-05-12T01:30:15;100498.78;;;12.73;100.00
4392;BME280;2210;51.938;8.488;2023-05-12T01:34:16;100503.50;;;12.73;100.00
4392;BME280;2210;51.938;8.488;2023-05-12T01:38:28;100507.09;;;12.73;100.00
4392;BME280;2210;51.938;8.488;2023-05-12T01:42:29;100518.84;;;12.80;100.00
4392;BME280;2210;51.938;8.488;2023-05-12T01:46:41;100515.13;;;12.75;100.00
4392;BME280;2210;51.938;8.488;2023-05-12T01:50:44;100516.16;;;12.69;100.00
4392;BME280;2210;51.938;8.488;2023-05-12T01:54:51;100523.53;;;12.63;100.00
4392;BME280;2210;51.938;8.488;2023-05-12T01:58:51;100522.69;;;12.62;100.00
4392;BME280;2210;51.938;8.488;2023-05-12T02:02:51;100520.69;;;12.58;100.00
4392;BME280;2210;51.938;8.488;2023-05-12T02:07:01;100526.72;;;12.55;100.00
4392;BME280;2210;51.938;8.488;2023-05-12T02:11:19;100523.00;;;12.49;100.00
4392;BME280;2210;51.938;8.488;2023-05-12T02:15:35;100526.72;;;12.55;100.00
4392;BME280;2210;51.938;8.488;2023-05-12T02:19:42;100534.41;;;12.53;100.00
4392;BME280;2210;51.938;8.488;2023-05-12T02:23:42;100531.06;;;12.51;100.00
4392;BME280;2210;51.938;8.488;2023-05-12T02:27:45;100535.25;;;12.53;100.00
4392;BME280;2210;51.938;8.488;2023-05-12T02:31:49;100540.31;;;12.56;100.00
4392;BME280;2210;51.938;8.488;2023-05-12T02:35:55;100535.59;;;12.57;100.00
4392;BME280;2210;51.938;8.488;2023-05-12T02:40:01;100527.72;;;12.48;100.00
4392;BME280;2210;51.938;8.488;2023-05-12T02:44:05;100528.88;;;12.53;100.00
4392;BME280;2210;51.938;8.488;2023-05-12T02:48:14;100526.13;;;12.53;100.00
4392;BME280;2210;51.938;8.488;2023-05-12T02:52:14;100526.94;;;12.53;100.00
4392;BME280;2210;51.938;8.488;2023-05-12T02:56:16;100526.13;;;12.53;100.00
4392;BME280;2210;51.938;8.488;2023-05-12T03:00:16;100530.22;;;12.50;100.00
4392;BME280;2210;51.938;8.488;2023-05-12T03:04:26;100511.88;;;12.44;100.00
4392;BME280;2210;51.938;8.488;2023-05-12T03:08:32;100514.41;;;12.45;100.00
4392;BME280;2210;51.938;8.488;2023-05-12T03:12:32;100525.47;;;12.45;100.00
4392;BME280;2210;51.938;8.488;2023-05-12T03:16:33;100528.78;;;12.47;100.00
4392;BME280;2210;51.938;8.488;2023-05-12T03:20:33;100529.41;;;12.50;100.00
4392;BME280;2210;51.938;8.488;2023-05-12T03:24:36;100530.63;;;12.42;100.00
4392;BME280;2210;51.938;8.488;2023-05-12T03:28:37;100531.97;;;12.39;100.00
4392;BME280;2210;51.938;8.488;2023-05-12T03:32:40;100531.88;;;12.34;100.00
4392;BME280;2210;51.938;8.488;2023-05-12T03:36:41;100529.25;;;12.27;100.00
4392;BME280;2210;51.938;8.488;2023-05-12T03:40:42;100531.19;;;12.27;100.00
4392;BME280;2210;51.938;8.488;2023-05-12T03:44:42;100530.84;;;12.23;100.00
4392;BME280;2210;51.938;8.488;2023-05-12T03:48:42;100536.13;;;12.25;100.00
4392;BME280;2210;51.938;8.488;2023-05-12T03:52:43;100537.34;;;12.29;100.00
4392;BME280;2210;51.938;8.488;2023-05-12T03:56:46;100527.47;;;12.33;100.00
4392;BME280;2210;51.938;8.488;2023-05-12T04:00:46;100533.81;;;12.34;100.00
4392;BME280;2210;51.938;8.488;2023-05-12T04:04:51;100533.47;;;12.30;100.00
4392;BME280;2210;51.938;8.488;2023-05-12T04:08:52;100544.03;;;12.33;100.00
4392;BME280;2210;51.938;8.488;2023-05-12T04:12:58;100547.88;;;12.32;100.00
4392;BME280;2210;51.938;8.488;2023-05-12T04:17:11;100541.28;;;12.33;100.00
4392;BME280;2210;51.938;8.488;2023-05-12T04:21:11;100550.81;;;12.42;100.00
4392;BME280;2210;51.938;8.488;2023-05-12T04:25:11;100550.34;;;12.45;100.00
4392;BME280;2210;51.938;8.488;2023-05-12T04:29:12;100555.63;;;12.47;100.00
4392;BME280;2210;51.938;8.488;2023-05-12T04:33:12;100570.78;;;12.44;100.00
4392;BME280;2210;51.938;8.488;2023-05-12T04:37:28;100568.59;;;12.46;100.00
4392;BME280;2210;51.938;8.488;2023-05-12T04:41:31;100567.75;;;12.46;100.00
4392;BME280;2210;51.938;8.488;2023-05-12T04:45:32;100573.13;;;12.53;100.00
4392;BME280;2210;51.938;8.488;2023-05-12T04:49:41;100580.59;;;12.52;100.00
4392;BME280;2210;51.938;8.488;2023-05-12T04:53:41;100583.84;;;12.49;100.00
4392;BME280;2210;51.938;8.488;2023-05-12T04:57:41;100590.25;;;12.50;100.00
4392;BME280;2210;51.938;8.488;2023-05-12T05:01:42;100594.75;;;12.56;100.00
4392;BME280;2210;51.938;8.488;2023-05-12T05:05:46;100607.75;;;12.55;100.00
4392;BME280;2210;51.938;8.488;2023-05-12T05:09:46;100608.19;;;12.64;100.00
4392;BME280;2210;51.938;8.488;2023-05-12T05:13:56;100612.47;;;12.72;100.00
4392;BME280;2210;51.938;8.488;2023-05-12T05:17:56;100621.59;;;12.72;100.00
4392;BME280;2210;51.938;8.488;2023-05-12T05:22:02;100631.00;;;12.88;100.00
4392;BME280;2210;51.938;8.488;2023-05-12T05:26:07;100632.84;;;12.82;100.00
4392;BME280;2210;51.938;8.488;2023-05-12T05:30:11;100629.31;;;12.87;100.00
4392;BME280;2210;51.938;8.488;2023-05-12T05:34:11;100635.47;;;12.89;100.00
4392;BME280;2210;51.938;8.488;2023-05-12T05:38:11;100644.59;;;12.90;100.00
4392;BME280;2210;51.938;8.488;2023-05-12T05:42:12;100649.66;;;12.93;100.00
4392;BME280;2210;51.938;8.488;2023-05-12T05:46:12;100647.19;;;12.96;100.00
4392;BME280;2210;51.938;8.488;2023-05-12T05:50:13;100644.59;;;12.90;100.00
4392;BME280;2210;51.938;8.488;2023-05-12T05:54:31;100649.88;;;12.91;100.00
4392;BME280;2210;51.938;8.488;2023-05-12T05:58:31;100653.75;;;13.07;100.00
4392;BME280;2210;51.938;8.488;2023-05-12T06:02:38;100660.56;;;13.16;100.00
4392;BME280;2210;51.938;8.488;2023-05-12T06:06:38;100662.06;;;13.24;100.00
4392;BME280;2210;51.938;8.488;2023-05-12T06:10:41;100680.69;;;13.29;100.00
4392;BME280;2210;51.938;8.488;2023-05-12T06:14:47;100687.56;;;13.26;100.00
4392;BME280;2210;51.938;8.488;2023-05-12T06:18:48;100689.00;;;13.29;100.00
4392;BME280;2210;51.938;8.488;2023-05-12T06:22:48;100693.31;;;13.37;100.00
4392;BME280;2210;51.938;8.488;2023-05-12T06:26:48;100690.16;;;13.33;100.00
4392;BME280;2210;51.938;8.488;2023-05-12T06:30:48;100699.84;;;13.47;100.00
4392;BME280;2210;51.938;8.488;2023-05-12T06:34:55;100694.31;;;13.47;100.00
4392;BME280;2210;51.938;8.488;2023-05-12T06:38:55;100698.44;;;13.62;100.00
4392;BME280;2210;51.938;8.488;2023-05-12T06:42:56;100695.13;;;13.65;100.00
4392;BME280;2210;51.938;8.488;2023-05-12T06:46:56;100705.72;;;13.68;100.00
4392;BME280;2210;51.938;8.488;2023-05-12T06:51:03;100708.41;;;13.63;100.00
4392;BME280;2210;51.938;8.488;2023-05-12T06:55:03;100706.69;;;13.79;100.00
4392;BME280;2210;51.938;8.488;2023-05-12T06:59:04;100703.34;;;13.77;100.00
4392;BME280;2210;51.938;8.488;2023-05-12T07:03:04;100703.81;;;13.91;100.00
4392;BME280;2210;51.938;8.488;2023-05-12T07:07:15;100700.72;;;13.87;100.00
4392;BME280;2210;51.938;8.488;2023-05-12T07:11:15;100706.59;;;13.91;100.00
4392;BME280;2210;51.938;8.488;2023-05-12T07:15:21;100695.72;;;14.06;100.00
4392;BME280;2210;51.938;8.488;2023-05-12T07:19:22;100706.81;;;14.06;100.00
4392;BME280;2210;51.938;8.488;2023-05-12T07:23:22;100698.38;;;14.18;100.00
4392;BME280;2210;51.938;8.488;2023-05-12T07:27:28;100709.78;;;14.22;100.00
4392;BME280;2210;51.938;8.488;2023-05-12T07:31:32;100708.22;;;14.31;100.00
4392;BME280;2210;51.938;8.488;2023-05-12T07:35:36;100701.78;;;14.47;100.00
4392;BME280;2210;51.938;8.488;2023-05-12T07:39:36;100700.81;;;14.59;100.00
4392;BME280;2210;51.938;8.488;2023-05-12T07:43:37;100702.16;;;14.78;100.00
4392;BME280;2210;51.938;8.488;2023-05-12T07:47:46;100699.97;;;14.80;100.00
4392;BME280;2210;51.938;8.488;2023-05-12T07:51:46;100702.88;;;14.96;100.00
4392;BME280;2210;51.938;8.488;2023-05-12T07:55:47;100701.69;;;15.19;100.00
4392;BME280;2210;51.938;8.488;2023-05-12T07:59:47;100702.72;;;15.40;100.00
4392;BME280;2210;51.938;8.488;2023-05-12T08:03:51;100699.78;;;15.52;100.00
4392;BME280;2210;51.938;8.488;2023-05-12T08:07:57;100696.97;;;15.84;100.00
4392;BME280;2210;51.938;8.488;2023-05-12T08:11:57;100696.94;;;16.38;100.00
4392;BME280;2210;51.938;8.488;2023-05-12T08:16:00;100704.41;;;16.27;100.00
4392;BME280;2210;51.938;8.488;2023-05-12T08:20:07;100700.06;;;15.93;100.00
4392;BME280;2210;51.938;8.488;2023-05-12T08:24:10;100705.38;;;16.00;100.00
4392;BME280;2210;51.938;8.488;2023-05-12T08:28:11;100705.19;;;16.12;100.00
4392;BME280;2210;51.938;8.488;2023-05-12T08:32:12;100712.53;;;16.39;100.00
4392;BME280;2210;51.938;8.488;2023-05-12T08:36:12;100710.00;;;16.37;100.00
4392;BME280;2210;51.938;8.488;2023-05-12T08:40:33;100703.31;;;16.33;100.00
4392;BME280;2210;51.938;8.488;2023-05-12T08:44:40;100702.84;;;16.51;100.00
4392;BME280;2210;51.938;8.488;2023-05-12T08:48:41;100699.84;;;16.68;100.00
4392;BME280;2210;51.938;8.488;2023-05-12T08:52:47;100711.53;;;16.76;100.00
4392;BME280;2210;51.938;8.488;2023-05-12T08:56:51;100704.94;;;17.02;100.00
4392;BME280;2210;51.938;8.488;2023-05-12T09:00:52;100705.78;;;17.13;100.00
4392;BME280;2210;51.938;8.488;2023-05-12T09:05:02;100703.28;;;17.53;97.42
4392;BME280;2210;51.938;8.488;2023-05-12T09:09:12;100705.78;;;17.65;100.00
4392;BME280;2210;51.938;8.488;2023-05-12T09:13:19;100701.91;;;17.61;97.32
4392;BME280;2210;51.938;8.488;2023-05-12T09:17:22;100701.56;;;17.93;100.00
4392;BME280;2210;51.938;8.488;2023-05-12T09:21:26;100695.88;;;18.34;100.00
4392;BME280;2210;51.938;8.488;2023-05-12T09:25:30;100694.88;;;18.65;90.05
4392;BME280;2210;51.938;8.488;2023-05-12T09:29:31;100694.09;;;18.54;85.17
4392;BME280;2210;51.938;8.488;2023-05-12T09:33:35;100685.63;;;18.69;89.47
4392;BME280;2210;51.938;8.488;2023-05-12T09:37:36;100683.81;;;18.99;84.45
4392;BME280;2210;51.938;8.488;2023-05-12T09:41:42;100691.78;;;19.11;83.32
4392;BME280;2210;51.938;8.488;2023-05-12T09:45:46;100695.41;;;19.17;82.18
4392;BME280;2210;51.938;8.488;2023-05-12T09:49:52;100685.06;;;19.17;75.85
4392;BME280;2210;51.938;8.488;2023-05-12T09:54:01;100687.16;;;19.36;78.11
4392;BME280;2210;51.938;8.488;2023-05-12T09:58:07;100688.75;;;19.13;71.05
4392;BME280;2210;51.938;8.488;2023-05-12T10:02:10;100688.72;;;19.47;81.12
4392;BME280;2210;51.938;8.488;2023-05-12T10:06:14;100677.56;;;19.42;75.46
4392;BME280;2210;51.938;8.488;2023-05-12T10:10:24;100685.09;;;19.47;79.01
4392;BME280;2210;51.938;8.488;2023-05-12T10:14:28;100685.84;;;19.58;73.61
4392;BME280;2210;51.938;8.488;2023-05-12T10:18:30;100682.59;;;19.45;78.11
4392;BME280;2210;51.938;8.488;2023-05-12T10:22:38;100678.41;;;19.72;78.65
4392;BME280;2210;51.938;8.488;2023-05-12T10:26:45;100676.56;;;19.92;69.36
4392;BME280;2210;51.938;8.488;2023-05-12T10:30:46;100670.38;;;19.95;71.42
4392;BME280;2210;51.938;8.488;2023-05-12T10:35:09;100666.75;;;19.94;71.15
4392;BME280;2210;51.938;8.488;2023-05-12T10:39:12;100676.84;;;20.14;79.82
4392;BME280;2210;51.938;8.488;2023-05-12T10:43:21;100672.13;;;20.34;65.92
4392;BME280;2210;51.938;8.488;2023-05-12T10:47:37;100658.06;;;20.39;66.65
4392;BME280;2210;51.938;8.488;2023-05-12T10:51:47;100662.00;;;20.38;66.14
4392;BME280;2210;51.938;8.488;2023-05-12T11:01:03;100662.34;;;20.55;63.96
4392;BME280;2210;51.938;8.488;2023-05-12T11:05:10;100662.47;;;20.45;61.60
4392;BME280;2210;51.938;8.488;2023-05-12T11:09:10;100671.84;;;20.54;58.03
4392;BME280;2210;51.938;8.488;2023-05-12T11:13:11;100669.19;;;20.44;62.02
4392;BME280;2210;51.938;8.488;2023-05-12T11:17:12;100661.56;;;20.50;59.41
4392;BME280;2210;51.938;8.488;2023-05-12T11:21:13;100670.66;;;20.61;58.75
4392;BME280;2210;51.938;8.488;2023-05-12T11:25:13;100667.44;;;20.72;59.95
4392;BME280;2210;51.938;8.488;2023-05-12T11:29:14;100667.78;;;20.66;56.59
4392;BME280;2210;51.938;8.488;2023-05-12T11:33:18;100668.31;;;20.68;52.95
4392;BME280;2210;51.938;8.488;2023-05-12T11:37:20;100665.41;;;20.78;57.28
4392;BME280;2210;51.938;8.488;2023-05-12T11:41:22;100670.03;;;20.88;56.39
4392;BME280;2210;51.938;8.488;2023-05-12T11:45:25;100668.63;;;21.04;56.86
4392;BME280;2210;51.938;8.488;2023-05-12T11:49:31;100675.91;;;20.67;54.56
4392;BME280;2210;51.938;8.488;2023-05-12T11:53:43;100671.28;;;20.96;55.01
4392;BME280;2210;51.938;8.488;2023-05-12T11:58:22;100671.19;;;21.01;54.94
4392;BME280;2210;51.938;8.488;2023-05-12T12:02:26;100675.06;;;20.86;56.50
4392;BME280;2210;51.938;8.488;2023-05-12T12:06:27;100664.50;;;21.16;56.91
4392;BME280;2210;51.938;8.488;2023-05-12T12:10:34;100677.78;;;21.10;51.69
4392;BME280;2210;51.938;8.488;2023-05-12T12:14:44;100663.53;;;21.26;53.31
4392;BME280;2210;51.938;8.488;2023-05-12T12:18:50;100671.13;;;21.39;54.75
4392;BME280;2210;51.938;8.488;2023-05-12T12:23:03;100667.34;;;20.97;50.31
4392;BME280;2210;51.938;8.488;2023-05-12T12:27:04;100688.66;;;20.54;54.85
4392;BME280;2210;51.938;8.488;2023-05-12T12:31:16;100680.13;;;20.46;53.18
4392;BME280;2210;51.938;8.488;2023-05-12T12:35:17;100685.81;;;20.60;55.58
4392;BME280;2210;51.938;8.488;2023-05-12T12:39:17;100678.53;;;20.59;53.72
4392;BME280;2210;51.938;8.488;2023-05-12T12:43:18;100679.88;;;20.42;53.82
4392;BME280;2210;51.938;8.488;2023-05-12T12:47:21;100675.88;;;20.48;55.57
4392;BME280;2210;51.938;8.488;2023-05-12T12:51:28;100681.00;;;20.41;52.58
4392;BME280;2210;51.938;8.488;2023-05-12T12:55:36;100680.81;;;20.57;50.13
4392;BME280;2210;51.938;8.488;2023-05-12T12:59:36;100686.47;;;20.51;51.12
4392;BME280;2210;51.938;8.488;2023-05-12T13:03:36;100683.19;;;20.44;49.50
4392;BME280;2210;51.938;8.488;2023-05-12T13:07:46;100668.31;;;21.06;47.17
4392;BME280;2210;51.938;8.488;2023-05-12T13:11:46;100670.09;;;20.83;48.17
4392;BME280;2210;51.938;8.488;2023-05-12T13:16:09;100683.28;;;20.39;46.86
4392;BME280;2210;51.938;8.488;2023-05-12T13:20:09;100688.47;;;20.27;47.55
4392;BME280;2210;51.938;8.488;2023-05-12T13:24:13;100686.81;;;20.26;47.10
4392;BME280;2210;51.938;8.488;2023-05-12T13:28:13;100681.53;;;20.43;47.15
4392;BME280;2210;51.938;8.488;2023-05-12T13:32:17;100677.97;;;20.37;45.67
4392;BME280;2210;51.938;8.488;2023-05-12T13:36:22;100694.66;;;20.24;42.50
4392;BME280;2210;51.938;8.488;2023-05-12T13:40:28;100684.47;;;20.76;44.89
4392;BME280;2210;51.938;8.488;2023-05-12T13:44:35;100667.56;;;21.19;42.43
4392;BME280;2210;51.938;8.488;2023-05-12T13:48:41;100672.47;;;21.28;39.00
4392;BME280;2210;51.938;8.488;2023-05-12T13:52:41;100669.41;;;20.91;39.99
4392;BME280;2210;51.938;8.488;2023-05-12T13:56:45;100661.81;;;20.92;36.82
4392;BME280;2210;51.938;8.488;2023-05-12T14:00:46;100669.47;;;21.05;37.95
4392;BME280;2210;51.938;8.488;2023-05-12T14:04:47;100664.63;;;20.92;40.46
4392;BME280;2210;51.938;8.488;2023-05-12T14:08:48;100663.53;;;21.26;43.22
4392;BME280;2210;51.938;8.488;2023-05-12T14:12:51;100661.47;;;21.31;44.86
4392;BME280;2210;51.938;8.488;2023-05-12T14:16:51;100661.94;;;21.19;44.29
4392;BME280;2210;51.938;8.488;2023-05-12T14:20:58;100653.91;;;21.13;43.33
4392;BME280;2210;51.938;8.488;2023-05-12T14:25:17;100662.59;;;20.97;41.99
4392;BME280;2210;51.938;8.488;2023-05-12T14:29:51;100656.38;;;20.81;41.58
4392;BME280;2210;51.938;8.488;2023-05-12T14:33:52;100671.38;;;20.71;42.81
4392;BME280;2210;51.938;8.488;2023-05-12T14:38:01;100660.72;;;20.49;44.58
4392;BME280;2210;51.938;8.488;2023-05-12T14:42:10;100662.38;;;20.75;43.09
4392;BME280;2210;51.938;8.488;2023-05-12T14:46:11;100659.25;;;20.76;45.00
4392;BME280;2210;51.938;8.488;2023-05-12T14:50:14;100677.91;;;20.62;44.68
4392;BME280;2210;51.938;8.488;2023-05-12T14:54:23;100673.09;;;20.48;45.69
4392;BME280;2210;51.938;8.488;2023-05-12T14:58:30;100678.81;;;20.38;45.55
4392;BME280;2210;51.938;8.488;2023-05-12T15:02:30;100679.88;;;20.42;44.97
4392;BME280;2210;51.938;8.488;2023-05-12T15:06:34;100665.47;;;20.73;45.18
4392;BME280;2210;51.938;8.488;2023-05-12T15:10:34;100671.91;;;20.93;44.63
4392;BME280;2210;51.938;8.488;2023-05-12T15:14:34;100672.06;;;21.01;43.33
4392;BME280;2210;51.938;8.488;2023-05-12T15:18:41;100674.63;;;20.98;44.16
4392;BME280;2210;51.938;8.488;2023-05-12T15:22:41;100679.84;;;21.04;43.57
4392;BME280;2210;51.938;8.488;2023-05-12T15:26:42;100679.03;;;21.04;43.39
4392;BME280;2210;51.938;8.488;2023-05-12T15:30:42;100680.84;;;20.95;45.54
4392;BME280;2210;51.938;8.488;2023-05-12T15:34:44;100684.78;;;20.94;45.48
4392;BME280;2210;51.938;8.488;2023-05-12T15:38:44;100686.16;;;20.77;46.71
4392;BME280;2210;51.938;8.488;2023-05-12T15:42:52;100690.69;;;20.73;47.57
4392;BME280;2210;51.938;8.488;2023-05-12T15:46:52;100689.56;;;20.74;47.54
4392;BME280;2210;51.938;8.488;2023-05-12T15:50:52;100682.13;;;20.83;48.16
4392;BME280;2210;51.938;8.488;2023-05-12T15:55:02;100682.31;;;20.68;48.46
4392;BME280;2210;51.938;8.488;2023-05-12T15:59:03;100691.84;;;20.67;47.92
4392;BME280;2210;51.938;8.488;2023-05-12T16:03:07;100679.31;;;20.83;45.14
4392;BME280;2210;51.938;8.488;2023-05-12T16:07:08;100686.25;;;20.67;46.03
4392;BME280;2210;51.938;8.488;2023-05-12T16:11:14;100680.69;;;20.43;43.07
4392;BME280;2210;51.938;8.488;2023-05-12T16:15:24;100680.53;;;20.34;43.38
4392;BME280;2210;51.938;8.488;2023-05-12T16:19:30;100684.28;;;20.48;42.29
4392;BME280;2210;51.938;8.488;2023-05-12T16:23:30;100680.72;;;20.62;40.55
4392;BME280;2210;51.938;8.488;2023-05-12T16:27:39;100677.91;;;20.62;40.94
4392;BME280;2210;51.938;8.488;2023-05-12T16:31:39;100668.75;;;20.56;40.45
4392;BME280;2210;51.938;8.488;2023-05-12T16:35:39;100669.00;;;20.60;39.92
4392;BME280;2210;51.938;8.488;2023-05-12T16:39:40;100672.91;;;20.59;41.76
4392;BME280;2210;51.938;8.488;2023-05-12T16:43:40;100674.16;;;20.52;40.09
4392;BME280;2210;51.938;8.488;2023-05-12T16:47:40;100668.66;;;20.42;41.53
4392;BME280;2210;51.938;8.488;2023-05-12T16:51:41;100675.34;;;20.46;42.00
4392;BME280;2210;51.938;8.488;2023-05-12T16:55:44;100667.75;;;20.47;41.16
4392;BME280;2210;51.938;8.488;2023-05-12T16:59:50;100674.22;;;20.47;41.60
4392;BME280;2210;51.938;8.488;2023-05-12T17:03:50;100665.31;;;20.40;42.23
4392;BME280;2210;51.938;8.488;2023-05-12T17:07:53;100672.66;;;20.36;41.92
4392;BME280;2210;51.938;8.488;2023-05-12T17:11:54;100671.00;;;20.35;42.91
4392;BME280;2210;51.938;8.488;2023-05-12T17:16:00;100676.97;;;20.28;42.78
4392;BME280;2210;51.938;8.488;2023-05-12T17:20:07;100682.22;;;20.11;45.47
4392;BME280;2210;51.938;8.488;2023-05-12T17:24:08;100685.44;;;19.99;46.95
4392;BME280;2210;51.938;8.488;2023-05-12T17:28:08;100682.63;;;19.99;44.33
4392;BME280;2210;51.938;8.488;2023-05-12T17:32:15;100688.78;;;20.01;45.07
4392;BME280;2210;51.938;8.488;2023-05-12T17:36:16;100693.56;;;19.95;44.43
4392;BME280;2210;51.938;8.488;2023-05-12T17:40:26;100699.44;;;19.99;43.03
4392;BME280;2210;51.938;8.488;2023-05-12T17:44:32;100699.44;;;19.99;40.93
4392;BME280;2210;51.938;8.488;2023-05-12T17:48:33;100701.53;;;19.83;42.95
4392;BME280;2210;51.938;8.488;2023-05-12T17:52:40;100699.38;;;19.75;43.28
4392;BME280;2210;51.938;8.488;2023-05-12T17:56:43;100707.03;;;19.64;43.72
4392;BME280;2210;51.938;8.488;2023-05-12T18:00:44;100707.16;;;19.48;46.01
4392;BME280;2210;51.938;8.488;2023-05-12T18:04:44;100709.53;;;19.36;46.10
4392;BME280;2210;51.938;8.488;2023-05-12T18:08:45;100719.06;;;19.30;45.39
4392;BME280;2210;51.938;8.488;2023-05-12T18:12:45;100719.94;;;19.25;46.38
4392;BME280;2210;51.938;8.488;2023-05-12T18:16:49;100728.09;;;19.16;45.63
4392;BME280;2210;51.938;8.488;2023-05-12T18:20:50;100727.63;;;19.04;46.86
4392;BME280;2210;51.938;8.488;2023-05-12T18:24:50;100737.44;;;18.96;47.22
4392;BME280;2210;51.938;8.488;2023-05-12T18:28:51;100732.16;;;18.95;46.74
4392;BME280;2210;51.938;8.488;2023-05-12T18:33:10;100736.16;;;18.73;47.84
4392;BME280;2210;51.938;8.488;2023-05-12T18:37:10;100745.69;;;18.67;48.16
4392;BME280;2210;51.938;8.488;2023-05-12T18:41:14;100739.84;;;18.58;47.31
4392;BME280;2210;51.938;8.488;2023-05-12T18:45:21;100742.13;;;18.56;47.76
4392;BME280;2210;51.938;8.488;2023-05-12T18:49:34;100739.13;;;18.37;49.08
4392;BME280;2210;51.938;8.488;2023-05-12T18:53:40;100752.56;;;18.25;50.95
4392;BME280;2210;51.938;8.488;2023-05-12T18:57:40;100764.59;;;18.05;54.60
4392;BME280;2210;51.938;8.488;2023-05-12T19:01:40;100760.97;;;17.83;51.41
4392;BME280;2210;51.938;8.488;2023-05-12T19:05:44;100768.22;;;17.74;56.13
4392;BME280;2210;51.938;8.488;2023-05-12T19:09:45;100776.03;;;17.62;57.81
4392;BME280;2210;51.938;8.488;2023-05-12T19:13:45;100775.47;;;17.49;58.80
4392;BME280;2210;51.938;8.488;2023-05-12T19:17:48;100779.66;;;17.36;56.50
4392;BME280;2210;51.938;8.488;2023-05-12T19:21:51;100785.50;;;17.25;58.92
4392;BME280;2210;51.938;8.488;2023-05-12T19:25:54;100786.03;;;17.11;60.20
4392;BME280;2210;51.938;8.488;2023-05-12T19:30:13;100791.84;;;17.05;60.97
4392;BME280;2210;51.938;8.488;2023-05-12T19:34:28;100799.34;;;16.99;60.65
4392;BME280;2210;51.938;8.488;2023-05-12T19:38:30;100799.63;;;16.92;60.81
4392;BME280;2210;51.938;8.488;2023-05-12T19:42:33;100801.00;;;16.90;62.29
4392;BME280;2210;51.938;8.488;2023-05-12T19:46:41;100805.34;;;16.75;63.76
4392;BME280;2210;51.938;8.488;2023-05-12T19:50:42;100804.44;;;16.54;61.11
4392;BME280;2210;51.938;8.488;2023-05-12T19:54:42;100807.78;;;16.51;63.03
4392;BME280;2210;51.938;8.488;2023-05-12T19:58:45;100809.41;;;16.42;65.10
4392;BME280;2210;51.938;8.488;2023-05-12T20:02:49;100802.88;;;16.26;65.02
4392;BME280;2210;51.938;8.488;2023-05-12T20:06:53;100807.31;;;16.22;65.31
4392;BME280;2210;51.938;8.488;2023-05-12T20:11:03;100805.63;;;16.21;66.89
4392;BME280;2210;51.938;8.488;2023-05-12T20:15:09;100814.81;;;16.16;67.53
4392;BME280;2210;51.938;8.488;2023-05-12T20:19:10;100820.03;;;16.12;69.15
4392;BME280;2210;51.938;8.488;2023-05-12T20:23:10;100817.78;;;16.04;69.31
4392;BME280;2210;51.938;8.488;2023-05-12T20:27:10;100819.38;;;15.95;68.60
4392;BME280;2210;51.938;8.488;2023-05-12T20:31:13;100825.47;;;15.92;70.37
4392;BME280;2210;51.938;8.488;2023-05-12T20:35:14;100817.06;;;15.87;70.41
4392;BME280;2210;51.938;8.488;2023-05-12T20:39:18;100822.00;;;15.79;65.70
4392;BME280;2210;51.938;8.488;2023-05-12T20:43:19;100831.19;;;15.80;69.18
4392;BME280;2210;51.938;8.488;2023-05-12T20:47:19;100835.03;;;15.74;69.50
4392;BME280;2210;51.938;8.488;2023-05-12T20:51:19;100828.59;;;15.73;69.94
4392;BME280;2210;51.938;8.488;2023-05-12T20:55:38;100834.91;;;15.63;71.73
4392;BME280;2210;51.938;8.488;2023-05-12T20:59:45;100840.69;;;15.57;69.01
4392;BME280;2210;51.938;8.488;2023-05-12T21:03:45;100836.72;;;15.47;69.00
4392;BME280;2210;51.938;8.488;2023-05-12T21:07:46;100840.81;;;15.40;70.25
4392;BME280;2210;51.938;8.488;2023-05-12T21:11:46;100839.66;;;15.36;69.79
4392;BME280;2210;51.938;8.488;2023-05-12T21:15:52;100834.41;;;15.39;70.45
4392;BME280;2210;51.938;8.488;2023-05-12T21:19:59;100848.03;;;15.41;70.25
4392;BME280;2210;51.938;8.488;2023-05-12T21:23:59;100845.44;;;15.29;69.71
4392;BME280;2210;51.938;8.488;2023-05-12T21:28:03;100854.22;;;15.21;69.81
4392;BME280;2210;51.938;8.488;2023-05-12T21:32:09;100854.31;;;15.31;65.00
4392;BME280;2210;51.938;8.488;2023-05-12T21:36:10;100847.09;;;15.30;63.50
4392;BME280;2210;51.938;8.488;2023-05-12T21:40:10;100851.59;;;15.36;63.05
4392;BME280;2210;51.938;8.488;2023-05-12T21:44:11;100854.06;;;15.32;63.92
4392;BME280;2210;51.938;8.488;2023-05-12T21:48:15;100841.84;;;15.33;61.98
4392;BME280;2210;51.938;8.488;2023-05-12T21:52:15;100852.53;;;15.20;64.51